createdAt,value
2019-05-10T00:02:27.122Z,43.72
2019-05-10T00:05:13.060Z,43.60
2019-05-10T00:07:58.811Z,43.33
2019-05-10T00:10:25.848Z,44.16
2019-05-10T00:13:11.397Z,43.25
2019-05-10T00:15:42.421Z,44.13
2019-05-10T00:18:10.159Z,43.56
2019-05-10T00:20:37.898Z,43.25
2019-05-10T00:23:05.631Z,44.13
2019-05-10T00:25:33.384Z,43.37
2019-05-10T00:28:01.157Z,43.83
2019-05-10T00:30:29.475Z,43.56
2019-05-10T00:32:57.195Z,44.08
2019-05-10T00:35:25.009Z,43.78
2019-05-10T00:37:52.818Z,43.79
2019-05-10T00:40:20.538Z,43.88
2019-05-10T00:42:48.259Z,43.57
2019-05-10T00:45:15.978Z,43.25
2019-05-10T00:47:43.708Z,42.99
2019-05-10T00:50:11.456Z,43.72
2019-05-10T00:52:39.250Z,43.30
2019-05-10T00:55:19.204Z,43.65
2019-05-10T00:57:46.999Z,43.57
2019-05-10T01:00:14.751Z,43.24
2019-05-10T01:02:42.555Z,43.48
2019-05-10T01:05:10.305Z,43.80
2019-05-10T01:07:38.017Z,43.35
2019-05-10T01:10:05.879Z,43.58
2019-05-10T01:12:33.620Z,43.90
2019-05-10T01:15:01.385Z,43.85
2019-05-10T01:17:29.163Z,43.75
2019-05-10T01:19:56.949Z,43.93
2019-05-10T01:22:24.687Z,43.73
2019-05-10T01:24:52.434Z,43.42
2019-05-10T01:27:20.136Z,43.54
2019-05-10T01:29:47.939Z,44.04
2019-05-10T01:32:25.039Z,43.84
2019-05-10T01:34:50.370Z,43.87
2019-05-10T01:37:18.120Z,43.41
2019-05-10T01:39:45.863Z,43.53
2019-05-10T01:42:13.664Z,43.96
2019-05-10T01:44:41.458Z,43.84
2019-05-10T01:47:09.251Z,43.90
2019-05-10T01:49:36.975Z,44.08
2019-05-10T01:52:04.751Z,44.27
2019-05-10T01:54:32.492Z,44.21
2019-05-10T01:57:00.232Z,44.13
2019-05-10T01:59:28.019Z,44.16
2019-05-10T02:01:55.738Z,44.08
2019-05-10T02:04:23.482Z,44.13
2019-05-10T02:06:51.191Z,44.09
2019-05-10T02:09:18.920Z,43.83
2019-05-10T02:11:46.611Z,44.13
2019-05-10T02:14:16.692Z,44.28
2019-05-10T02:16:50.630Z,44.07
2019-05-10T02:19:15.521Z,43.63
2019-05-10T02:21:43.271Z,44.00
2019-05-10T02:24:11.034Z,43.98
2019-05-10T02:26:38.756Z,44.11
2019-05-10T02:29:06.492Z,44.67
2019-05-10T02:31:34.308Z,44.47
2019-05-10T02:34:02.306Z,44.28
2019-05-10T02:36:30.043Z,44.85
2019-05-10T02:38:57.838Z,44.92
2019-05-10T02:41:25.559Z,44.33
2019-05-10T02:43:53.267Z,43.96
2019-05-10T02:46:20.984Z,43.93
2019-05-10T02:48:48.690Z,43.82
2019-05-10T02:51:16.437Z,44.04
2019-05-10T02:53:44.205Z,44.34
2019-05-10T02:56:29.154Z,44.09
2019-05-10T02:58:42.281Z,43.78
2019-05-10T03:01:11.258Z,44.28
2019-05-10T03:03:38.964Z,44.11
2019-05-10T03:06:06.718Z,44.19
2019-05-10T03:08:47.214Z,44.23
2019-05-10T03:11:15.003Z,44.83
2019-05-10T03:13:42.764Z,44.31
2019-05-10T03:16:10.484Z,44.71
2019-05-10T03:18:38.228Z,45.02
2019-05-10T03:21:06.052Z,44.20
2019-05-10T03:23:33.825Z,44.33
2019-05-10T03:26:01.587Z,44.40
2019-05-10T03:28:29.383Z,44.19
2019-05-10T03:30:57.152Z,44.08
2019-05-10T03:33:44.156Z,44.00
2019-05-10T03:36:11.965Z,44.18
2019-05-10T03:38:39.681Z,43.77
2019-05-10T03:41:07.428Z,44.26
2019-05-10T03:43:35.159Z,44.43
2019-05-10T03:46:02.898Z,44.82
2019-05-10T03:48:30.662Z,45.50
2019-05-10T03:50:58.513Z,44.53
2019-05-10T03:53:26.443Z,44.98
2019-05-10T03:55:54.480Z,44.64
2019-05-10T03:58:22.346Z,44.49
2019-05-10T04:00:50.248Z,44.65
2019-05-10T04:03:17.992Z,44.84
2019-05-10T04:05:45.912Z,44.40
2019-05-10T04:08:28.551Z,45.90
2019-05-10T04:10:56.619Z,44.32
2019-05-10T04:13:24.406Z,44.66
2019-05-10T04:15:54.875Z,44.76
2019-05-10T04:18:22.726Z,44.90
2019-05-10T04:20:50.440Z,44.93
2019-05-10T04:23:18.182Z,45.02
2019-05-10T04:25:45.901Z,45.19
2019-05-10T04:28:13.685Z,45.42
2019-05-10T04:30:41.509Z,46.44
2019-05-10T04:33:09.223Z,46.17
2019-05-10T04:35:37.015Z,45.10
2019-05-10T04:38:04.749Z,45.97
2019-05-10T04:40:32.489Z,46.18
2019-05-10T04:43:00.293Z,45.33
2019-05-10T04:45:38.663Z,45.71
2019-05-10T04:48:06.527Z,45.91
2019-05-10T04:50:34.439Z,45.78
2019-05-10T04:53:02.162Z,45.63
2019-05-10T04:55:29.995Z,45.43
2019-05-10T04:57:57.739Z,46.10
2019-05-10T05:00:25.897Z,45.21
2019-05-10T05:02:53.699Z,47.54
2019-05-10T05:05:21.521Z,46.94
2019-05-10T05:07:49.326Z,46.79
2019-05-10T05:10:18.167Z,45.28
2019-05-10T05:12:46.014Z,45.01
2019-05-10T05:15:13.766Z,45.20
2019-05-10T05:17:41.640Z,46.38
2019-05-10T05:20:09.457Z,45.74
2019-05-10T05:22:37.361Z,46.85
2019-05-10T05:25:14.908Z,47.25
2019-05-10T05:27:42.756Z,45.94
2019-05-10T05:30:10.579Z,46.27
2019-05-10T05:32:43.932Z,45.94
2019-05-10T05:35:07.867Z,45.08
2019-05-10T05:37:35.595Z,45.85
2019-05-10T05:40:09.760Z,44.20
2019-05-10T05:42:37.471Z,44.31
2019-05-10T05:45:05.408Z,44.28
2019-05-10T05:47:42.061Z,44.54
2019-05-10T05:50:09.525Z,45.07
2019-05-10T05:52:37.259Z,44.99
2019-05-10T05:55:15.574Z,44.25
2019-05-10T05:57:37.804Z,43.96
2019-05-10T06:00:06.773Z,44.67
2019-05-10T06:02:44.335Z,45.20
2019-05-10T06:05:04.162Z,44.98
2019-05-10T06:07:37.960Z,47.39
2019-05-10T06:10:01.322Z,45.43
2019-05-10T06:12:29.043Z,45.73
2019-05-10T06:14:56.766Z,45.53
2019-05-10T06:17:29.422Z,45.82
2019-05-10T06:19:54.028Z,45.86
2019-05-10T06:22:21.763Z,45.65
2019-05-10T06:24:52.390Z,44.36
2019-05-10T06:27:18.986Z,45.65
2019-05-10T06:30:01.168Z,44.93
2019-05-10T06:32:25.246Z,45.57
2019-05-10T06:34:52.960Z,45.18
2019-05-10T06:37:20.706Z,45.32
2019-05-10T06:39:48.500Z,45.39
2019-05-10T06:42:16.280Z,45.77
2019-05-10T06:44:44.066Z,44.98
2019-05-10T06:47:11.837Z,45.81
2019-05-10T06:49:41.551Z,45.79
2019-05-10T06:52:09.521Z,44.99
2019-05-10T06:54:37.330Z,46.57
2019-05-10T06:57:05.047Z,44.39
2019-05-10T06:59:32.790Z,44.53
2019-05-10T07:02:00.502Z,44.33
2019-05-10T07:04:28.311Z,44.45
2019-05-10T07:06:56.044Z,45.81
2019-05-10T07:10:00.474Z,44.44
2019-05-10T07:12:02.631Z,45.08
2019-05-10T07:14:30.428Z,44.71
2019-05-10T07:17:02.792Z,45.90
2019-05-10T07:19:28.849Z,44.71
2019-05-10T07:21:58.163Z,44.38
2019-05-10T07:24:31.657Z,44.78
2019-05-10T07:27:02.179Z,44.15
2019-05-10T07:29:30.749Z,44.37
2019-05-10T07:32:00.449Z,44.21
2019-05-10T07:34:28.868Z,45.03
2019-05-10T07:37:16.146Z,44.37
2019-05-10T07:39:43.985Z,46.18
2019-05-10T07:42:13.944Z,44.56
2019-05-10T07:44:48.894Z,44.84
2019-05-10T07:47:23.918Z,44.42
2019-05-10T07:49:50.083Z,44.62
2019-05-10T07:52:19.474Z,44.49
2019-05-10T07:55:17.938Z,44.12
2019-05-10T07:57:50.458Z,44.22
2019-05-10T08:00:18.248Z,44.23
2019-05-10T08:02:51.245Z,46.02
2019-05-10T08:05:18.297Z,46.11
2019-05-10T08:07:45.678Z,47.35
2019-05-10T08:10:13.452Z,46.67
2019-05-10T08:12:45.286Z,48.32
2019-05-10T08:15:10.711Z,48.73
2019-05-10T08:17:43.277Z,49.50
2019-05-10T08:20:33.319Z,49.35
2019-05-10T08:22:47.264Z,47.79
2019-05-10T08:25:15.491Z,47.89
2019-05-10T08:27:50.241Z,45.67
2019-05-10T08:30:26.267Z,45.69
2019-05-10T08:32:42.558Z,45.02
2019-05-10T08:35:16.283Z,44.96
2019-05-10T08:37:39.946Z,45.68
2019-05-10T08:40:07.660Z,44.91
2019-05-10T08:42:44.338Z,44.65
2019-05-10T08:45:08.622Z,46.61
2019-05-10T08:47:34.672Z,44.84
2019-05-10T08:50:18.432Z,44.93
2019-05-10T08:52:42.387Z,46.15
2019-05-10T08:55:12.291Z,45.36
2019-05-10T08:57:44.561Z,45.30
2019-05-10T09:00:09.273Z,45.24
2019-05-10T09:02:37.055Z,44.73
2019-05-10T09:05:04.789Z,45.16
2019-05-10T09:07:36.943Z,45.91
2019-05-10T09:10:02.381Z,44.94
2019-05-10T09:12:33.344Z,46.34
2019-05-10T09:15:06.342Z,46.27
2019-05-10T09:17:32.444Z,45.79
2019-05-10T09:20:02.484Z,45.65
2019-05-10T09:22:38.545Z,45.25
2019-05-10T09:25:04.272Z,45.56
2019-05-10T09:27:33.456Z,45.75
2019-05-10T09:30:02.927Z,46.10
2019-05-10T09:32:33.328Z,45.93
2019-05-10T09:35:07.560Z,45.62
2019-05-10T09:37:32.054Z,46.71
2019-05-10T09:40:07.695Z,46.34
2019-05-10T09:42:34.838Z,47.46
2019-05-10T09:44:58.143Z,46.35
2019-05-10T09:47:25.858Z,46.18
2019-05-10T09:49:58.646Z,46.35
2019-05-10T09:52:29.443Z,46.61
2019-05-10T09:55:04.141Z,46.40
2019-05-10T09:57:31.998Z,46.22
2019-05-10T09:59:58.507Z,46.46
2019-05-10T10:02:33.343Z,46.38
2019-05-10T10:04:58.696Z,47.57
2019-05-10T10:07:29.374Z,46.46
2019-05-10T10:09:56.933Z,47.34
2019-05-10T10:12:23.995Z,46.20
2019-05-10T10:14:51.711Z,46.99
2019-05-10T10:17:20.583Z,47.52
2019-05-10T10:19:48.486Z,47.23
2019-05-10T10:22:17.486Z,48.07
2019-05-10T10:24:48.952Z,46.45
2019-05-10T10:27:19.556Z,45.90
2019-05-10T10:29:47.309Z,45.58
2019-05-10T10:32:14.134Z,45.79
2019-05-10T10:34:43.200Z,45.55
2019-05-10T10:37:14.816Z,45.50
2019-05-10T10:39:40.575Z,45.61
2019-05-10T10:42:12.953Z,45.97
2019-05-10T10:44:37.815Z,45.76
2019-05-10T10:47:08.039Z,45.69
2019-05-10T10:49:34.975Z,47.81
2019-05-10T10:52:05.542Z,46.20
2019-05-10T10:54:36.717Z,46.14
2019-05-10T10:57:01.695Z,46.01
2019-05-10T10:59:43.651Z,46.03
2019-05-10T11:02:29.018Z,46.16
2019-05-10T11:04:32.399Z,47.22
2019-05-10T11:07:09.789Z,45.96
2019-05-10T11:09:31.169Z,46.88
2019-05-10T11:12:00.940Z,46.32
2019-05-10T11:14:31.936Z,46.08
2019-05-10T11:16:58.512Z,46.37
2019-05-10T11:19:26.227Z,46.56
2019-05-10T11:21:53.943Z,46.21
2019-05-10T11:24:22.863Z,47.27
2019-05-10T11:26:51.701Z,47.35
2019-05-10T11:29:42.492Z,46.67
2019-05-10T11:32:15.967Z,47.20
2019-05-10T11:34:39.742Z,46.55
2019-05-10T11:37:07.476Z,46.80
2019-05-10T11:39:41.896Z,47.20
2019-05-10T11:42:07.084Z,46.60
2019-05-10T11:44:34.086Z,46.86
2019-05-10T11:47:01.803Z,46.02
2019-05-10T11:49:30.767Z,46.51
2019-05-10T11:51:59.471Z,46.03
2019-05-10T11:54:28.221Z,45.82
2019-05-10T11:56:58.607Z,46.84
2019-05-10T11:59:33.883Z,47.58
2019-05-10T12:02:00.537Z,47.80
2019-05-10T12:04:37.987Z,48.02
2019-05-10T12:06:57.104Z,46.54
2019-05-10T12:09:24.845Z,47.27
2019-05-10T12:11:56.471Z,46.71
2019-05-10T12:14:22.117Z,47.45
2019-05-10T12:17:34.092Z,46.92
2019-05-10T12:20:02.618Z,47.44
2019-05-10T12:22:38.477Z,47.37
2019-05-10T12:25:27.327Z,47.72
2019-05-10T12:27:43.698Z,46.82
2019-05-10T12:30:02.616Z,47.78
2019-05-10T12:32:35.295Z,46.69
2019-05-10T12:34:58.172Z,46.98
2019-05-10T12:37:25.922Z,47.49
2019-05-10T12:39:53.739Z,47.15
2019-05-10T12:42:21.921Z,47.00
2019-05-10T12:44:51.963Z,46.69
2019-05-10T12:47:33.768Z,46.87
2019-05-10T12:50:02.128Z,47.38
2019-05-10T12:52:28.887Z,47.31
2019-05-10T12:54:57.407Z,47.19
2019-05-10T12:57:25.498Z,47.05
2019-05-10T12:59:54.414Z,46.12
2019-05-10T13:02:25.295Z,47.23
2019-05-10T13:04:54.703Z,47.53
2019-05-10T13:07:25.427Z,48.13
2019-05-10T13:10:02.551Z,47.98
2019-05-10T13:12:47.416Z,46.72
2019-05-10T13:15:24.705Z,48.09
2019-05-10T13:17:53.132Z,47.31
2019-05-10T13:20:22.528Z,47.63
2019-05-10T13:22:53.237Z,48.06
2019-05-10T13:25:24.124Z,47.45
2019-05-10T13:27:52.212Z,47.06
2019-05-10T13:30:27.160Z,47.14
2019-05-10T13:32:52.961Z,47.51
2019-05-10T13:35:28.798Z,46.89
2019-05-10T13:38:44.029Z,46.49
2019-05-10T13:48:40.762Z,47.22
2019-05-10T13:51:08.977Z,47.63
2019-05-10T13:53:36.798Z,47.63
2019-05-10T13:59:38.185Z,47.12
2019-05-10T14:06:59.512Z,46.55
2019-05-10T14:13:05.072Z,47.67
2019-05-10T14:22:48.175Z,47.61
2019-05-10T14:25:56.770Z,47.39
2019-05-10T14:28:47.478Z,47.84
2019-05-10T14:35:03.341Z,47.95
2019-05-10T14:38:10.803Z,46.86
2019-05-10T14:40:56.784Z,47.84
2019-05-10T14:43:20.552Z,48.50
2019-05-10T14:45:49.846Z,48.14
2019-05-10T14:49:09.967Z,49.22
2019-05-10T14:52:22.679Z,47.65
2019-05-10T14:57:48.926Z,48.12
2019-05-10T15:00:16.861Z,47.52
2019-05-10T15:03:04.225Z,47.60
2019-05-10T15:08:42.453Z,48.60
2019-05-10T15:11:26.363Z,49.64
2019-05-10T15:13:56.367Z,48.64
2019-05-10T15:16:27.256Z,46.61
2019-05-10T15:18:54.101Z,47.45
2019-05-10T15:21:24.692Z,47.72
2019-05-10T15:23:55.223Z,46.66
2019-05-10T15:26:23.175Z,48.22
2019-05-10T15:28:50.907Z,47.73
2019-05-10T15:31:23.645Z,46.50
2019-05-10T15:33:49.281Z,48.55
2019-05-10T15:37:02.492Z,46.48
2019-05-10T15:39:28.673Z,47.79
2019-05-10T15:41:59.046Z,47.66
2019-05-10T15:44:57.998Z,46.57
2019-05-10T15:48:31.383Z,45.61
2019-05-10T15:51:04.704Z,46.26
2019-05-10T15:53:32.526Z,45.35
2019-05-10T15:56:03.963Z,46.86
2019-05-10T15:58:30.594Z,47.55
2019-05-10T16:01:01.091Z,47.32
2019-05-10T16:03:29.055Z,48.16
2019-05-10T16:06:00.791Z,47.00
2019-05-10T16:08:30.210Z,48.88
2019-05-10T16:10:55.900Z,47.57
2019-05-10T16:13:26.274Z,45.87
2019-05-10T16:15:59.595Z,47.42
2019-05-10T16:18:27.395Z,43.48
2019-05-10T16:20:55.138Z,46.08
2019-05-10T16:23:22.987Z,45.98
2019-05-10T16:25:50.699Z,44.69
2019-05-10T16:28:20.675Z,44.87
2019-05-10T16:30:48.058Z,44.90
2019-05-10T16:33:18.032Z,47.42
2019-05-10T16:35:49.742Z,46.17
2019-05-10T16:38:14.970Z,44.16
2019-05-10T16:40:44.612Z,43.34
2019-05-10T16:43:13.437Z,45.47
2019-05-10T16:45:59.514Z,45.79
2019-05-10T16:48:28.328Z,45.76
2019-05-10T16:50:56.980Z,47.14
2019-05-10T16:53:24.838Z,46.45
2019-05-10T16:55:56.020Z,44.15
2019-05-10T16:58:23.942Z,44.56
2019-05-10T17:01:35.676Z,45.31
2019-05-10T17:03:35.069Z,46.09
2019-05-10T17:06:04.041Z,45.16
2019-05-10T17:08:40.078Z,45.27
2019-05-10T17:11:10.172Z,45.51
2019-05-10T17:13:41.456Z,42.74
2019-05-10T17:16:11.634Z,45.03
2019-05-10T17:18:37.279Z,45.70
2019-05-10T17:21:04.987Z,44.75
2019-05-10T17:23:32.741Z,43.15
2019-05-10T17:26:01.080Z,42.38
2019-05-10T17:28:29.562Z,42.89
2019-05-10T17:30:59.966Z,42.10
2019-05-10T17:33:28.636Z,42.38
2019-05-10T17:36:07.952Z,41.28
